Time;durP1;ratioP1;P1;durP2;ratioP2;P2;SDS_P1;SDS_P2;PMS_P1;PMS_P2;Temp;Humidity;BMP_temperature;BMP_pressure;BME280_temperature;BME280_humidity;BME280_pressure;Samples;Min_cycle;Max_cycle;Signal;HPM_P1;HPM_P2
2023/12/08 00:00:20;;;;;;;8.43;7.83;;;;;;;3.25;100.00;17785.06;6185214;23;20564;-62
2023/12/08 00:02:47;;;;;;;7.93;7.53;;;;;;;3.22;100.00;18736.53;6184804;23;20208;-64
2023/12/08 00:05:15;;;;;;;8.27;7.77;;;;;;;3.17;100.00;19052.47;6184805;23;20532;-63
2023/12/08 00:07:43;;;;;;;8.20;7.70;;;;;;;3.29;100.00;18421.28;6184810;23;20546;-63
2023/12/08 00:10:11;;;;;;;8.30;7.80;;;;;;;3.22;100.00;18736.72;6184317;23;20557;-63
2023/12/08 00:12:38;;;;;;;9.03;8.50;;;;;;;3.07;100.00;19683.88;6184327;23;20166;-64
2023/12/08 00:15:05;;;;;;;8.83;8.37;;;;;;;3.03;100.00;19364.69;6184763;23;20420;-64
2023/12/08 00:17:33;;;;;;;8.37;7.97;;;;;;;2.94;100.00;19679.03;6184359;23;20285;-63
2023/12/08 00:20:00;;;;;;;8.57;7.97;;;;;;;2.86;100.00;19358.44;6184672;23;20613;-63
2023/12/08 00:22:28;;;;;;;9.43;8.83;;;;;;;3.08;100.00;19366.53;6184338;23;20248;-62
2023/12/08 00:24:56;;;;;;;8.50;8.00;;;;;;;3.12;100.00;19050.66;6184206;23;20479;-63
2023/12/08 00:27:23;;;;;;;7.93;7.43;;;;;;;3.06;100.00;20318.50;6184791;23;20501;-63
2023/12/08 00:29:50;;;;;;;9.00;8.37;;;;;;;3.11;100.00;20638.25;6184356;23;20228;-64
2023/12/08 00:32:17;;;;;;;8.77;8.17;;;;;;;3.11;100.00;21273.66;6184301;23;20162;-63
2023/12/08 00:34:46;;;;;;;9.37;8.70;;;;;;;3.10;100.00;21908.78;6184559;23;20213;-63
2023/12/08 00:37:13;;;;;;;8.53;8.13;;;;;;;2.91;100.00;22218.69;6184557;23;20336;-63
2023/12/08 00:39:41;;;;;;;8.80;8.00;;;;;;;3.13;100.00;23499.44;6184177;23;20155;-64
2023/12/08 00:42:09;;;;;;;8.20;7.70;;;;;;;3.06;100.00;21907.16;6184087;23;20651;-62
2023/12/08 00:44:37;;;;;;;8.67;8.17;;;;;;;3.08;100.00;22225.75;6184041;23;20165;-63
2023/12/08 00:47:04;;;;;;;8.03;7.53;;;;;;;3.05;100.00;22542.31;6184079;23;20158;-64
2023/12/08 00:49:31;;;;;;;9.13;8.63;;;;;;;3.08;100.00;22861.22;6184201;23;20185;-63
2023/12/08 00:51:58;;;;;;;8.03;7.57;;;;;;;2.90;100.00;22853.78;6184370;23;20202;-63
2023/12/08 00:54:25;;;;;;;8.70;8.10;;;;;;;2.89;100.00;22853.13;6184219;23;20213;-64
2023/12/08 00:56:52;;;;;;;8.47;7.97;;;;;;;2.89;100.00;23806.78;6184338;23;20197;-63
2023/12/08 00:59:20;;;;;;;8.80;7.90;;;;;;;2.90;100.00;23807.22;6184342;23;20217;-63
2023/12/08 01:01:48;;;;;;;8.53;7.83;;;;;;;2.85;100.00;23487.19;6184397;23;20229;-64
2023/12/08 01:04:15;;;;;;;8.27;7.73;;;;;;;2.82;100.00;21897.09;6183948;23;20668;-64
2023/12/08 01:06:42;;;;;;;9.27;8.47;;;;;;;2.78;100.00;20625.41;6184301;23;20162;-64
2023/12/08 01:09:09;;;;;;;9.67;9.07;;;;;;;2.81;100.00;20943.91;6184122;23;20159;-63
2023/12/08 01:11:37;;;;;;;9.27;8.67;;;;;;;2.83;100.00;22215.16;6183926;23;20189;-63
2023/12/08 01:14:04;;;;;;;8.43;7.83;;;;;;;2.79;100.00;22213.72;6184116;23;20169;-64
2023/12/08 01:16:32;;;;;;;9.80;9.13;;;;;;;2.98;100.00;22221.59;6184271;23;20170;-64
2023/12/08 01:18:59;;;;;;;9.13;8.53;;;;;;;2.83;100.00;23168.53;6184183;23;20159;-63
2023/12/08 01:21:26;;;;;;;8.03;7.53;;;;;;;2.78;100.00;23166.38;6183906;23;20166;-63
2023/12/08 01:23:53;;;;;;;9.10;8.60;;;;;;;2.84;100.00;23804.59;6183791;23;20167;-63
2023/12/08 01:26:21;;;;;;;8.73;8.13;;;;;;;2.74;100.00;26661.44;6184122;23;20501;-64
2023/12/08 01:28:48;;;;;;;8.40;7.80;;;;;;;2.81;100.00;26982.72;6183824;23;20153;-64
2023/12/08 01:31:15;;;;;;;8.97;8.30;;;;;;;2.85;100.00;27621.28;6184010;23;20249;-63
2023/12/08 01:33:43;;;;;;;8.83;8.33;;;;;;;2.91;100.00;28260.84;6184318;23;20158;-64
2023/12/08 01:36:11;;;;;;;8.47;7.97;;;;;;;2.79;100.00;29846.22;6184053;23;20243;-63
2023/12/08 01:38:38;;;;;;;7.87;7.47;;;;;;;2.85;100.00;28894.34;6183670;23;20162;-64
2023/12/08 01:41:06;;;;;;;7.87;7.47;;;;;;;2.96;100.00;28263.44;6183654;23;20202;-64
2023/12/08 01:43:33;;;;;;;8.77;8.27;;;;;;;3.00;100.00;30812.94;6183526;23;20162;-63
2023/12/08 01:46:01;;;;;;;8.27;7.77;;;;;;;2.83;100.00;32077.97;6183726;23;20162;-62
2023/12/08 01:48:28;;;;;;;9.07;8.47;;;;;;;2.80;100.00;32394.56;6183574;23;20162;-62
2023/12/08 01:50:57;;;;;;;9.47;8.77;;;;;;;3.00;100.00;32725.28;6183845;23;20637;-62
2023/12/08 01:53:24;;;;;;;9.33;8.77;;;;;;;3.12;100.00;33689.00;6183514;23;20228;-62
2023/12/08 01:55:52;;;;;;;9.67;8.97;;;;;;;3.20;100.00;35289.03;6183892;23;20549;-61
2023/12/08 01:58:19;;;;;;;9.80;9.10;;;;;;;3.23;100.00;37206.28;6183957;23;20162;-62
2023/12/08 02:00:48;;;;;;;9.33;8.73;;;;;;;3.23;100.00;35928.94;6183963;23;20258;-62
2023/12/08 02:03:16;;;;;;;9.27;8.30;;;;;;;3.02;100.00;37511.56;6183500;23;20162;-62
2023/12/08 02:05:48;;;;;;;9.27;8.67;;;;;;;3.19;100.00;39119.59;6183859;23;20260;-62
2023/12/08 02:08:16;;;;;;;9.50;8.80;;;;;;;3.22;100.00;37524.63;6183444;23;20273;-62
2023/12/08 02:10:44;;;;;;;9.43;8.83;;;;;;;3.09;100.00;40071.06;6183418;23;20522;-63
2023/12/08 02:13:12;;;;;;;9.30;8.50;;;;;;;3.09;100.00;38474.22;6183923;23;20553;-62
2023/12/08 02:15:40;;;;;;;9.83;9.23;;;;;;;2.92;100.00;39101.19;6183838;23;20264;-62
2023/12/08 02:18:10;;;;;;;9.93;9.07;;;;;;;3.20;100.00;38481.41;6183804;23;20471;-61
2023/12/08 02:20:37;;;;;;;10.33;9.43;;;;;;;3.05;100.00;38471.13;6183820;23;20206;-62
2023/12/08 02:23:06;;;;;;;9.70;9.00;;;;;;;3.12;100.00;38156.56;6183554;23;20166;-62
2023/12/08 02:25:35;;;;;;;9.03;8.40;;;;;;;3.06;100.00;41666.78;6183405;23;20214;-62
2023/12/08 02:28:03;;;;;;;8.40;7.90;;;;;;;3.10;100.00;41350.44;6185092;23;20159;-62
2023/12/08 02:30:30;;;;;;;8.60;7.87;;;;;;;2.86;100.00;40055.06;6185801;23;20182;-61
2023/12/08 02:33:03;;;;;;;9.57;8.23;;;;;;;3.21;100.00;39760.41;6185630;23;20158;-62
2023/12/08 02:35:33;;;;;;;8.80;8.20;;;;;;;3.20;100.00;42317.00;6185713;23;20498;-61
2023/12/08 02:38:02;;;;;;;9.40;8.70;;;;;;;2.99;100.00;45179.59;6185697;23;20199;-61
2023/12/08 02:40:29;;;;;;;8.43;7.83;;;;;;;3.14;100.00;44551.16;6185332;23;20166;-63
2023/12/08 02:42:58;;;;;;;7.83;7.33;;;;;;;3.05;100.00;44224.19;6185530;23;20217;-62
2023/12/08 02:45:25;;;;;;;8.30;7.63;;;;;;;3.11;100.00;43269.63;6185545;23;20162;-62
2023/12/08 02:47:52;;;;;;;8.60;7.90;;;;;;;3.15;100.00;41673.81;6185181;23;20193;-61
2023/12/08 02:50:19;;;;;;;7.90;7.50;;;;;;;3.12;100.00;43270.41;6185072;23;20182;-62
2023/12/08 02:52:46;;;;;;;8.57;8.07;;;;;;;2.90;100.00;41655.34;6185201;23;20205;-62
2023/12/08 02:55:13;;;;;;;8.10;7.70;;;;;;;3.04;100.00;37832.19;6185868;23;20169;-62
2023/12/08 02:57:40;;;;;;;9.20;8.60;;;;;;;3.07;100.00;40069.63;6185349;23;20165;-63
2023/12/08 03:00:10;;;;;;;9.10;8.40;;;;;;;2.96;100.00;40061.81;6185683;23;20656;-62
2023/12/08 03:02:37;;;;;;;9.57;8.97;;;;;;;3.06;100.00;37513.91;6185033;23;20158;-63
2023/12/08 03:05:05;;;;;;;8.73;8.23;;;;;;;3.23;100.00;38164.38;6184985;23;20166;-62
2023/12/08 03:07:32;;;;;;;8.83;8.33;;;;;;;3.30;100.00;38487.91;6184954;23;20162;-62
2023/12/08 03:09:59;;;;;;;8.83;8.13;;;;;;;3.28;100.00;41682.66;6184935;23;20190;-61
2023/12/08 03:12:26;;;;;;;7.80;7.40;;;;;;;3.18;100.00;43914.41;6185180;23;20228;-62
2023/12/08 03:14:53;;;;;;;7.00;6.63;;;;;;;3.11;100.00;44229.25;6185002;23;20212;-62
2023/12/08 03:17:22;;;;;;;7.70;7.30;;;;;;;2.97;100.00;45178.00;6185325;23;20166;-61
2023/12/08 03:19:49;;;;;;;7.27;6.87;;;;;;;2.93;100.00;45494.38;6185036;23;20170;-61
2023/12/08 03:22:16;;;;;;;6.47;6.17;;;;;;;2.85;100.00;44208.97;6185202;23;20159;-61
2023/12/08 03:24:43;;;;;;;7.03;6.63;;;;;;;2.91;100.00;42295.31;6184912;23;20216;-60
2023/12/08 03:27:10;;;;;;;6.30;5.90;;;;;;;2.66;100.00;41318.25;6184939;23;20162;-62
2023/12/08 03:29:40;;;;;;;7.40;6.90;;;;;;;2.70;100.00;41321.53;6184738;23;20216;-62
2023/12/08 03:32:07;;;;;;;6.33;6.03;;;;;;;2.65;100.00;42275.84;6184910;23;20168;-62
2023/12/08 03:34:36;;;;;;;5.50;5.20;;;;;;;2.48;100.00;42902.38;6185019;23;20165;-62
2023/12/08 03:37:03;;;;;;;6.43;6.10;;;;;;;2.47;100.00;39389.03;6184671;23;20166;-62
2023/12/08 03:39:30;;;;;;;6.30;6.00;;;;;;;2.60;100.00;38759.78;6184928;23;20450;-62
2023/12/08 03:41:57;;;;;;;6.30;5.97;;;;;;;2.58;100.00;38120.22;6184588;23;20162;-62
2023/12/08 03:44:24;;;;;;;6.37;6.07;;;;;;;2.60;100.00;36208.00;6184700;23;20165;-61
2023/12/08 03:46:51;;;;;;;6.37;6.07;;;;;;;2.55;100.00;37799.16;6184986;23;20590;-61
2023/12/08 03:49:18;;;;;;;6.40;6.10;;;;;;;2.40;100.00;39065.41;6184647;23;20165;-63
2023/12/08 03:51:47;;;;;;;7.03;6.63;;;;;;;2.41;100.00;37471.13;6184593;23;20734;-61
2023/12/08 03:54:14;;;;;;;6.60;6.20;;;;;;;2.45;100.00;36836.00;6184591;23;20165;-62
2023/12/08 03:56:41;;;;;;;6.70;6.20;;;;;;;2.46;100.00;37155.22;6184926;23;20558;-62
2023/12/08 03:59:08;;;;;;;7.13;6.63;;;;;;;2.48;100.00;37156.53;6184922;23;20502;-61
2023/12/08 04:01:35;;;;;;;7.20;6.80;;;;;;;2.46;100.00;39069.22;6184872;23;20189;-62
2023/12/08 04:04:02;;;;;;;7.63;7.13;;;;;;;2.34;100.00;39061.22;6184368;23;20249;-62
2023/12/08 04:06:29;;;;;;;7.87;7.43;;;;;;;2.44;100.00;38430.06;6184459;23;20165;-62
2023/12/08 04:08:57;;;;;;;8.97;8.20;;;;;;;2.47;100.00;39389.38;6184498;23;20158;-62
2023/12/08 04:11:25;;;;;;;8.83;8.17;;;;;;;2.42;100.00;39066.44;6184322;23;20190;-62
2023/12/08 04:13:52;;;;;;;8.60;8.03;;;;;;;2.26;100.00;37461.09;6184625;23;20158;-62
2023/12/08 04:16:19;;;;;;;9.93;9.13;;;;;;;2.29;100.00;35550.56;6184559;23;20223;-62
2023/12/08 04:18:46;;;;;;;10.53;9.53;;;;;;;2.21;100.00;35226.84;6184498;23;20164;-62
2023/12/08 04:21:17;;;;;;;11.50;10.13;;;;;;;2.24;100.00;35228.75;6184339;23;20217;-62
2023/12/08 04:23:44;;;;;;;10.17;9.23;;;;;;;2.23;100.00;35546.75;6184184;23;20168;-62
2023/12/08 04:26:13;;;;;;;10.87;9.90;;;;;;;2.19;100.00;36181.81;6184225;23;20162;-62
2023/12/08 04:28:41;;;;;;;9.87;8.87;;;;;;;2.35;100.00;37147.94;6184195;23;20193;-61
2023/12/08 04:31:08;;;;;;;10.70;9.80;;;;;;;2.41;100.00;38427.69;6184094;23;20236;-61
2023/12/08 04:33:35;;;;;;;10.27;9.43;;;;;;;2.40;100.00;39384.13;6184529;23;20551;-62
2023/12/08 04:36:03;;;;;;;11.10;10.00;;;;;;;2.22;100.00;40009.94;6184606;23;20161;-61
2023/12/08 04:38:30;;;;;;;11.10;10.07;;;;;;;2.28;100.00;38419.47;6184268;23;20162;-62
2023/12/08 04:40:57;;;;;;;13.60;10.60;;;;;;;2.35;100.00;39061.91;6184176;23;20169;-61
2023/12/08 04:43:25;;;;;;;12.53;11.23;;;;;;;2.22;100.00;38734.28;6184464;23;20162;-62
2023/12/08 04:45:52;;;;;;;11.23;10.33;;;;;;;2.17;100.00;38411.94;6183937;23;20163;-61
2023/12/08 04:48:19;;;;;;;9.97;9.17;;;;;;;2.35;100.00;39061.56;6184242;23;20180;-62
2023/12/08 04:50:47;;;;;;;10.30;9.40;;;;;;;2.31;100.00;40016.31;6183716;23;20233;-61
2023/12/08 04:53:14;;;;;;;11.57;10.40;;;;;;;2.29;100.00;39377.13;6184203;23;20545;-61
2023/12/08 04:55:41;;;;;;;10.57;9.67;;;;;;;2.39;100.00;38745.31;6184450;23;20545;-63
2023/12/08 04:58:08;;;;;;;11.50;10.40;;;;;;;2.34;100.00;37147.59;6184521;23;20485;-61
2023/12/08 05:00:37;;;;;;;11.37;10.30;;;;;;;2.41;100.00;37151.91;6184627;23;20602;-62
2023/12/08 05:03:04;;;;;;;11.07;10.07;;;;;;;2.39;100.00;36831.72;6183904;23;20228;-62
2023/12/08 05:05:31;;;;;;;10.53;9.50;;;;;;;2.40;100.00;38427.34;6184087;23;20165;-62
2023/12/08 05:07:58;;;;;;;10.63;9.67;;;;;;;2.39;100.00;40341.16;6183850;23;20159;-62
2023/12/08 05:10:25;;;;;;;10.17;9.33;;;;;;;2.24;100.00;43523.31;6183614;23;20216;-63
2023/12/08 05:12:52;;;;;;;10.60;9.67;;;;;;;2.46;100.00;43219.97;6183989;23;20243;-62
2023/12/08 05:15:20;;;;;;;9.50;8.80;;;;;;;2.48;100.00;43221.47;6184396;23;20249;-62
2023/12/08 05:17:48;;;;;;;9.33;8.57;;;;;;;2.36;100.00;46408.56;6183642;23;20245;-62
2023/12/08 05:20:15;;;;;;;10.73;9.67;;;;;;;2.38;100.00;45450.69;6183705;23;20213;-63
2023/12/08 05:22:43;;;;;;;9.80;8.90;;;;;;;2.25;100.00;45121.09;6183709;23;20161;-61
2023/12/08 05:25:10;;;;;;;10.30;9.40;;;;;;;2.51;100.00;43223.78;6184063;23;20497;-61
2023/12/08 05:27:37;;;;;;;10.07;9.27;;;;;;;2.50;100.00;44501.28;6183988;23;20531;-61
2023/12/08 05:30:05;;;;;;;9.67;8.87;;;;;;;2.46;100.00;47055.97;6183899;23;20299;-61
2023/12/08 05:32:50;;;;;;;9.90;9.10;;;;;;;2.43;100.00;47373.31;6183763;23;20244;-61
2023/12/08 05:35:19;;;;;;;9.43;8.80;;;;;;;2.47;100.00;45777.59;6183961;23;20166;-62
2023/12/08 05:37:46;;;;;;;10.30;9.27;;;;;;;2.47;100.00;44179.72;6183487;23;20204;-61
2023/12/08 05:40:14;;;;;;;11.03;10.07;;;;;;;2.56;100.00;45145.75;6184061;23;20594;-62
2023/12/08 05:42:41;;;;;;;10.83;9.83;;;;;;;2.42;100.00;48332.22;6183739;23;20169;-61
2023/12/08 05:45:10;;;;;;;10.30;9.57;;;;;;;2.49;100.00;47378.31;6183590;23;20503;-61
2023/12/08 05:47:37;;;;;;;11.40;10.27;;;;;;;2.28;100.00;47041.91;6183941;23;20572;-61
2023/12/08 05:50:04;;;;;;;10.90;9.90;;;;;;;2.53;100.00;46422.44;6183881;23;20162;-61
2023/12/08 05:52:33;;;;;;;10.70;9.70;;;;;;;2.55;100.00;46743.53;6183462;23;20680;-61
2023/12/08 05:55:00;;;;;;;12.23;9.40;;;;;;;2.57;100.00;48344.94;6183821;23;20501;-62
2023/12/08 05:57:27;;;;;;;10.67;9.77;;;;;;;2.57;100.00;45466.31;6183845;23;20197;-62
2023/12/08 05:59:54;;;;;;;10.80;9.90;;;;;;;2.58;100.00;47065.91;6183834;23;20475;-62
2023/12/08 06:02:21;;;;;;;10.43;9.50;;;;;;;2.56;100.00;45145.38;6185165;23;20162;-62
2023/12/08 06:04:49;;;;;;;10.73;9.93;;;;;;;2.64;100.00;45151.72;6185582;23;20245;-62
2023/12/08 06:07:16;;;;;;;10.40;9.47;;;;;;;2.63;100.00;45790.53;6185921;23;20163;-63
2023/12/08 06:09:44;;;;;;;11.00;10.07;;;;;;;2.56;100.00;47704.09;6185415;23;20169;-63
2023/12/08 06:12:11;;;;;;;11.07;10.03;;;;;;;2.60;100.00;48987.63;6185776;23;20204;-62
2023/12/08 06:14:38;;;;;;;10.70;9.70;;;;;;;2.47;100.00;49936.69;6185470;23;20162;-61
2023/12/08 06:17:05;;;;;;;10.10;9.13;;;;;;;2.61;100.00;50910.16;6185756;23;20166;-63
2023/12/08 06:19:32;;;;;;;10.20;9.43;;;;;;;2.62;100.00;50910.59;6185461;23;20158;-63
2023/12/08 06:21:59;;;;;;;10.50;9.70;;;;;;;2.67;100.00;50594.75;6185447;23;20158;-63
2023/12/08 06:24:26;;;;;;;10.37;9.37;;;;;;;2.62;100.00;54435.72;6185681;23;20166;-63
2023/12/08 06:26:55;;;;;;;9.17;8.47;;;;;;;2.61;100.00;58284.97;6185615;23;20159;-62
2023/12/08 06:29:22;;;;;;;9.97;8.97;;;;;;;2.48;100.00;61160.78;6185219;23;20169;-62
2023/12/08 06:31:49;;;;;;;10.50;9.50;;;;;;;2.81;100.00;61516.72;6185345;23;20495;-63
2023/12/08 06:34:16;;;;;;;9.40;8.70;;;;;;;2.93;100.00;66998.84;6185134;23;20170;-63
2023/12/08 06:36:47;;;;;;;9.30;8.60;;;;;;;3.06;100.00;72171.22;6185055;23;20173;-63
2023/12/08 06:39:15;;;;;;;9.93;9.03;;;;;;;3.16;100.00;77349.09;6185526;23;20158;-62
2023/12/08 06:41:43;;;;;;;8.83;7.90;;;;;;;3.29;100.00;83186.63;6185263;23;20157;-62
2023/12/08 06:44:11;;;;;;;8.67;8.00;;;;;;;3.49;100.00;88725.03;6185406;23;20158;-61
2023/12/08 06:46:38;;;;;;;9.07;8.30;;;;;;;3.57;100.00;94255.03;6185328;23;20223;-63
2023/12/08 06:49:06;;;;;;;8.30;7.70;;;;;;;3.54;100.00;103358.28;6184973;23;20159;-61
2023/12/08 06:51:35;;;;;;;7.43;6.93;;;;;;;3.65;100.00;115125.41;6184848;23;20205;-63
2023/12/08 06:54:03;;;;;;;8.50;7.80;;;;;;;3.81;100.00;120718.69;6184726;23;20216;-61
2023/12/08 06:56:30;;;;;;;7.83;7.30;;;;;;;3.93;100.00;132554.75;6184537;23;20205;-60
2023/12/08 06:58:57;;;;;;;7.60;7.10;;;;;;;3.86;100.00;147024.22;6184472;23;20158;-61
2023/12/08 07:01:26;;;;;;;7.20;6.80;;;;;;;4.07;100.00;147078.22;6185084;23;20593;-61
2023/12/08 07:03:53;;;;;;;8.37;7.73;;;;;;;4.00;100.00;147059.38;6184711;23;20169;-61
2023/12/08 07:06:21;;;;;;;7.80;7.40;;;;;;;3.98;100.00;147055.66;6185102;23;20521;-60
2023/12/08 07:08:48;;;;;;;7.70;7.20;;;;;;;3.64;100.00;146970.16;6185002;23;20166;-60
2023/12/08 07:11:15;;;;;;;7.53;7.07;;;;;;;3.69;100.00;146982.75;6185130;23;20214;-61
2023/12/08 07:13:42;;;;;;;8.03;7.53;;;;;;;3.63;100.00;146967.63;6185909;23;20169;-61
2023/12/08 07:16:09;;;;;;;7.30;6.90;;;;;;;3.62;100.00;146965.13;6185110;23;20548;-59
2023/12/08 07:18:38;;;;;;;7.80;7.37;;;;;;;3.81;100.00;147012.91;6184499;23;20261;-60
2023/12/08 07:21:05;;;;;;;7.77;7.27;;;;;;;4.03;100.00;147068.16;6185004;23;20632;-59
2023/12/08 07:23:33;;;;;;;8.23;7.63;;;;;;;4.28;100.00;147129.81;6185143;23;20545;-61
2023/12/08 07:26:00;;;;;;;8.03;7.30;;;;;;;5.18;100.00;147352.47;6184549;23;20162;-60
2023/12/08 07:28:27;;;;;;;7.87;7.20;;;;;;;5.88;100.00;147528.72;6185237;23;20181;-61
2023/12/08 07:30:54;;;;;;;7.10;6.70;;;;;;;6.85;100.00;147770.59;6184923;23;20610;-61
2023/12/08 07:33:21;;;;;;;10.33;6.27;;;;;;;6.88;100.00;147778.13;6184656;23;20238;-61
2023/12/08 07:35:50;;;;;;;6.10;5.80;;;;;;;7.00;100.00;147805.88;6184573;23;20158;-64
2023/12/08 07:38:18;;;;;;;7.40;7.00;;;;;;;7.24;100.00;147866.38;6184790;23;20158;-62
2023/12/08 07:40:45;;;;;;;7.00;6.37;;;;;;;8.15;100.00;148094.59;6185212;23;20598;-60
2023/12/08 07:43:12;;;;;;;7.33;6.50;;;;;;;8.57;100.00;148199.38;6184268;23;20155;-61
2023/12/08 07:45:39;;;;;;;7.23;6.73;;;;;;;9.37;100.00;148398.88;6184758;23;20162;-62
2023/12/08 07:48:07;;;;;;;6.90;6.40;;;;;;;9.45;100.00;148417.81;6184024;23;20162;-61
2023/12/08 07:50:37;;;;;;;6.60;6.30;;;;;;;9.26;100.00;148371.06;6181211;23;20668;-58
2023/12/08 07:53:05;;;;;;;6.90;6.60;;;;;;;9.02;100.00;148311.75;6184095;23;20200;-59
2023/12/08 07:55:32;;;;;;;6.57;6.27;;;;;;;8.80;100.00;148254.91;6184748;23;20177;-59
2023/12/08 07:57:59;;;;;;;7.60;6.97;;;;;;;9.50;100.00;148431.72;6184575;23;20202;-59
2023/12/08 08:00:26;;;;;;;7.47;7.07;;;;;;;9.39;100.00;148403.91;6185448;23;20190;-59
2023/12/08 08:02:53;;;;;;;7.20;6.67;;;;;;;9.88;100.00;148525.19;6185123;23;20162;-59
2023/12/08 08:05:20;;;;;;;7.07;6.60;;;;;;;10.20;100.00;148606.06;6184364;23;20198;-60
2023/12/08 08:07:47;;;;;;;7.50;7.10;;;;;;;10.73;100.00;148737.53;6184976;23;20258;-59
2023/12/08 08:10:16;;;;;;;5.60;5.30;;;;;;;11.27;100.00;148874.09;6184740;23;20185;-60
2023/12/08 08:12:43;;;;;;;6.27;5.87;;;;;;;12.03;100.00;149062.63;6184672;23;20226;-59
2023/12/08 08:15:10;;;;;;;6.13;5.83;;;;;;;12.52;96.45;149185.44;6185064;23;20570;-64
2023/12/08 08:17:37;;;;;;;8.73;7.63;;;;;;;11.96;100.00;149044.94;6183829;23;20162;-62
2023/12/08 08:20:05;;;;;;;7.47;6.90;;;;;;;12.67;97.27;149223.41;6184987;23;20158;-64
2023/12/08 08:22:33;;;;;;;6.17;5.90;;;;;;;13.34;82.85;149390.59;6184294;23;20165;-63
2023/12/08 08:25:00;;;;;;;7.07;6.00;;;;;;;12.95;84.54;149293.03;6184053;23;20589;-63
2023/12/08 08:27:28;;;;;;;7.13;6.43;;;;;;;12.81;90.47;149258.88;6184671;23;20163;-62
2023/12/08 08:29:55;;;;;;;7.00;6.50;;;;;;;13.40;87.23;149405.81;6184025;23;20170;-64
2023/12/08 08:32:23;;;;;;;5.87;5.67;;;;;;;12.50;83.07;149180.34;6184536;23;20612;-64
2023/12/08 08:34:51;;;;;;;8.73;6.83;;;;;;;12.31;95.83;149133.50;6184921;23;20553;-63
2023/12/08 08:37:22;;;;;;;7.47;6.77;;;;;;;12.69;96.92;149228.44;6183902;23;20167;-62
2023/12/08 08:39:49;;;;;;;5.93;5.67;;;;;;;14.03;77.94;149565.50;6184297;23;20245;-63
2023/12/08 08:42:17;;;;;;;7.63;6.93;;;;;;;13.00;85.64;149305.69;6184127;23;20158;-62
2023/12/08 08:44:46;;;;;;;8.83;6.53;;;;;;;12.83;86.06;149263.91;6184016;23;20166;-63
2023/12/08 08:47:13;;;;;;;7.43;7.03;;;;;;;12.09;91.85;149079.09;6184231;23;20613;-63
2023/12/08 08:49:40;;;;;;;8.27;6.90;;;;;;;10.69;100.00;148728.69;6183788;23;20213;-64
2023/12/08 08:52:08;;;;;;;7.07;6.53;;;;;;;10.43;100.00;148662.94;6184001;23;20209;-63
2023/12/08 08:54:36;;;;;;;6.93;6.63;;;;;;;10.23;100.00;148613.63;6183312;23;20232;-63
2023/12/08 08:57:04;;;;;;;6.23;5.87;;;;;;;9.82;100.00;148511.25;6183433;23;20220;-63
2023/12/08 08:59:32;;;;;;;6.17;5.97;;;;;;;9.80;100.00;148504.97;6183882;23;20216;-63
2023/12/08 09:02:00;;;;;;;7.17;6.77;;;;;;;9.92;100.00;148535.28;6183914;23;20245;-63
2023/12/08 09:04:27;;;;;;;8.00;7.30;;;;;;;9.38;100.00;148400.09;6184083;23;20525;-64
2023/12/08 09:06:56;;;;;;;8.20;7.70;;;;;;;8.83;100.00;148263.75;6183521;23;20166;-61
2023/12/08 09:09:23;;;;;;;20.40;17.90;;;;;;;8.88;100.00;148275.09;6183850;23;20166;-63
2023/12/08 09:11:50;;;;;;;7.40;6.80;;;;;;;8.45;100.00;148169.09;6183688;23;20284;-63
2023/12/08 09:14:17;;;;;;;7.07;6.57;;;;;;;8.06;100.00;148070.69;6183548;23;20501;-63
2023/12/08 09:16:46;;;;;;;9.17;8.33;;;;;;;7.97;100.00;148049.22;6183824;23;20162;-63
2023/12/08 09:19:15;;;;;;;12.70;7.20;;;;;;;8.38;100.00;148151.44;6183684;23;20159;-65
2023/12/08 09:21:42;;;;;;;7.40;6.70;;;;;;;8.30;100.00;148130.00;6183632;23;20162;-64
2023/12/08 09:24:09;;;;;;;8.00;6.93;;;;;;;8.15;100.00;148094.59;6183573;23;20165;-63
2023/12/08 09:26:36;;;;;;;7.20;6.87;;;;;;;8.43;100.00;148162.81;6183810;23;20537;-63
2023/12/08 09:29:03;;;;;;;7.97;7.23;;;;;;;8.60;100.00;148205.72;6183742;23;20594;-63
2023/12/08 09:31:31;;;;;;;8.20;6.63;;;;;;;8.55;100.00;148193.09;6183815;23;20217;-63
2023/12/08 09:33:58;;;;;;;6.73;6.33;;;;;;;8.50;100.00;148181.72;6183218;23;20514;-63
2023/12/08 09:36:29;;;;;;;6.83;6.53;;;;;;;8.41;100.00;148159.00;6183678;23;20565;-64
2023/12/08 09:38:56;;;;;;;7.07;6.67;;;;;;;9.17;100.00;148349.59;6183728;23;20228;-63
2023/12/08 09:41:23;;;;;;;7.13;6.40;;;;;;;10.00;100.00;148555.50;6183261;23;20162;-63
2023/12/08 09:43:58;;;;;;;5.67;5.37;;;;;;;11.28;100.00;148876.63;6183664;23;20197;-64
2023/12/08 09:46:28;;;;;;;5.90;5.60;;;;;;;12.13;93.13;149089.22;6183483;23;20231;-64
2023/12/08 09:48:58;;;;;;;16.30;5.60;;;;;;;12.54;90.18;149191.75;6183677;23;20166;-64
2023/12/08 09:51:28;;;;;;;6.60;6.10;;;;;;;12.96;84.95;149296.84;6183424;23;20470;-64
2023/12/08 09:53:55;;;;;;;6.73;6.23;;;;;;;12.47;85.76;149174.03;6183114;23;20276;-64
2023/12/08 09:56:26;;;;;;;7.30;6.50;;;;;;;10.55;100.00;148693.28;6183821;23;20154;-64
2023/12/08 09:58:54;;;;;;;6.23;6.03;;;;;;;9.58;100.00;148451.91;6183386;23;20170;-65
2023/12/08 10:01:21;;;;;;;6.63;6.33;;;;;;;9.11;100.00;148334.47;6183756;23;20155;-64
2023/12/08 10:03:48;;;;;;;6.33;5.93;;;;;;;9.25;100.00;148368.53;6183692;23;20159;-64
2023/12/08 10:06:16;;;;;;;10.77;8.60;;;;;;;9.60;100.00;148456.94;6182792;23;20161;-63
2023/12/08 10:08:45;;;;;;;6.60;6.30;;;;;;;10.24;100.00;148614.91;6183752;23;20549;-63
2023/12/08 10:11:12;;;;;;;6.90;6.50;;;;;;;9.76;100.00;148494.88;6183360;23;20158;-64
2023/12/08 10:13:39;;;;;;;5.80;5.40;;;;;;;9.28;100.00;148374.88;6183339;23;20653;-64
2023/12/08 10:16:07;;;;;;;6.60;6.10;;;;;;;8.59;100.00;148204.44;6183251;23;20166;-63
2023/12/08 10:18:34;;;;;;;9.13;6.80;;;;;;;8.18;100.00;148100.94;6183259;23;20162;-63
2023/12/08 10:21:15;;;;;;;6.70;6.30;;;;;;;7.81;100.00;148010.09;6183150;23;20164;-64
2023/12/08 10:23:44;;;;;;;6.77;6.47;;;;;;;7.49;100.00;147929.41;6183380;23;20158;-63
2023/12/08 10:26:12;;;;;;;8.40;7.13;;;;;;;6.97;100.00;147799.56;6184512;23;20257;-64
2023/12/08 10:28:39;;;;;;;9.27;7.40;;;;;;;6.86;100.00;147771.84;6183520;23;20660;-63
2023/12/08 10:31:07;;;;;;;6.80;6.40;;;;;;;6.89;100.00;147780.66;6183137;23;20249;-63
2023/12/08 10:33:34;;;;;;;16.73;8.27;;;;;;;6.70;100.00;147732.81;6183071;23;20186;-63
2023/12/08 10:36:01;;;;;;;7.20;6.70;;;;;;;6.24;100.00;147616.84;6183134;23;20166;-63
2023/12/08 10:38:29;;;;;;;7.57;7.17;;;;;;;6.07;100.00;147575.28;6183344;23;20166;-63
2023/12/08 10:40:58;;;;;;;8.37;7.80;;;;;;;6.56;100.00;147697.50;6183482;23;20162;-64
2023/12/08 10:43:25;;;;;;;7.77;7.07;;;;;;;7.85;100.00;148017.69;6183007;23;20232;-63
2023/12/08 10:45:53;;;;;;;6.50;6.20;;;;;;;8.94;100.00;148291.53;6183412;23;20241;-64
2023/12/08 10:48:21;;;;;;;7.43;6.73;;;;;;;9.37;100.00;148398.88;6184249;23;20162;-64
2023/12/08 10:50:49;;;;;;;7.10;6.50;;;;;;;9.55;100.00;148444.31;6185307;23;20496;-64
2023/12/08 10:53:18;;;;;;;7.00;6.43;;;;;;;9.96;100.00;148546.66;6184605;23;20240;-64
2023/12/08 10:55:50;;;;;;;6.47;6.17;;;;;;;9.36;100.00;148395.06;6185505;23;20169;-64
2023/12/08 10:58:22;;;;;;;6.60;6.30;;;;;;;8.37;100.00;148148.91;6185025;23;20221;-64
2023/12/08 11:00:52;;;;;;;7.20;6.47;;;;;;;7.99;100.00;148052.97;6185195;23;20620;-63
2023/12/08 11:03:21;;;;;;;7.17;6.77;;;;;;;8.15;100.00;148094.59;6185693;23;20158;-64
2023/12/08 11:05:59;;;;;;;13.37;8.50;;;;;;;7.86;100.00;148020.19;6184865;23;20162;-63
2023/12/08 11:08:28;;;;;;;8.00;7.47;;;;;;;7.52;100.00;147935.69;6185451;23;20216;-62
2023/12/08 11:10:58;;;;;;;6.40;6.00;;;;;;;7.60;100.00;147957.13;6184922;23;20162;-62
2023/12/08 11:13:29;;;;;;;6.30;6.00;;;;;;;7.40;100.00;147906.72;6184705;23;20182;-62
2023/12/08 11:16:17;;;;;;;21.10;7.70;;;;;;;7.13;100.00;147838.66;6185163;23;20170;-62
2023/12/08 11:18:45;;;;;;;6.83;6.40;;;;;;;7.04;100.00;147815.97;6185539;23;20190;-62
2023/12/08 11:21:12;;;;;;;7.27;6.90;;;;;;;6.81;100.00;147759.25;6184797;23;20158;-63
2023/12/08 11:23:42;;;;;;;7.73;7.33;;;;;;;6.46;100.00;147672.28;6183237;23;20174;-64
2023/12/08 11:26:19;;;;;;;8.73;7.90;;;;;;;6.51;100.00;147684.91;6185141;23;20166;-63
2023/12/08 11:29:00;;;;;;;8.90;8.07;;;;;;;6.24;100.00;147616.84;6184905;23;20158;-63